createdAt,value
2022-08-20T00:02:15.115Z,19.22
2022-08-20T00:04:46.768Z,19.23
2022-08-20T00:07:15.665Z,19.17
2022-08-20T00:09:45.167Z,19.14
2022-08-20T00:12:17.153Z,19.11
2022-08-20T00:14:45.256Z,19.10
2022-08-20T00:17:13.372Z,19.14
2022-08-20T00:19:41.457Z,19.13
2022-08-20T00:22:09.698Z,19.10
2022-08-20T00:24:37.723Z,19.06
2022-08-20T00:27:09.747Z,19.03
2022-08-20T00:29:37.991Z,19.01
2022-08-20T00:32:06.717Z,18.99
2022-08-20T00:34:34.899Z,18.94
2022-08-20T00:37:05.250Z,18.98
2022-08-20T00:39:33.330Z,18.95
2022-08-20T00:42:01.456Z,19.01
2022-08-20T00:44:31.084Z,19.01
2022-08-20T00:46:59.227Z,18.99
2022-08-20T00:49:29.217Z,18.99
2022-08-20T00:52:00.198Z,18.98
2022-08-20T00:54:34.370Z,18.98
2022-08-20T00:57:05.397Z,18.94
2022-08-20T00:59:39.974Z,18.98
2022-08-20T01:02:10.954Z,18.96
2022-08-20T01:04:39.701Z,18.94
2022-08-20T01:07:08.385Z,18.93
2022-08-20T01:09:57.562Z,18.91
2022-08-20T01:12:26.039Z,18.90
2022-08-20T01:14:56.538Z,18.91
2022-08-20T01:17:26.471Z,18.91
2022-08-20T01:19:59.314Z,19.05
2022-08-20T01:22:51.164Z,19.17
2022-08-20T01:25:29.754Z,19.22
2022-08-20T01:28:00.134Z,19.30
2022-08-20T01:30:29.903Z,19.24
2022-08-20T01:32:58.062Z,19.24
2022-08-20T01:35:27.415Z,19.21
2022-08-20T01:37:56.155Z,19.22
2022-08-20T01:40:37.598Z,19.18
2022-08-20T01:43:08.923Z,19.17
2022-08-20T01:45:40.017Z,19.17
2022-08-20T01:48:09.697Z,19.20
2022-08-20T01:50:41.152Z,19.19
2022-08-20T01:53:19.636Z,19.21
2022-08-20T01:55:48.317Z,19.25
2022-08-20T01:58:17.684Z,19.21
2022-08-20T02:00:45.707Z,19.16
2022-08-20T02:03:13.732Z,19.21
2022-08-20T02:05:42.590Z,19.17
2022-08-20T02:08:10.657Z,19.17
2022-08-20T02:10:38.667Z,19.12
2022-08-20T02:13:09.722Z,19.17
2022-08-20T02:15:39.837Z,19.16
2022-08-20T02:18:15.416Z,19.18
2022-08-20T02:20:44.510Z,19.19
2022-08-20T02:23:15.524Z,19.26
2022-08-20T02:25:45.350Z,19.27
2022-08-20T02:28:15.948Z,19.28
2022-08-20T02:30:48.611Z,19.27
2022-08-20T02:33:20.252Z,19.27
2022-08-20T02:35:56.465Z,19.24
2022-08-20T02:38:24.977Z,19.27
2022-08-20T02:40:53.853Z,19.29
2022-08-20T02:43:21.861Z,19.29
2022-08-20T02:45:51.527Z,19.31
2022-08-20T02:48:22.909Z,19.31
2022-08-20T02:50:54.262Z,19.33
2022-08-20T02:53:22.813Z,19.34
2022-08-20T02:55:51.323Z,19.30
2022-08-20T02:58:20.795Z,19.29
2022-08-20T03:00:49.656Z,19.28
2022-08-20T03:03:22.381Z,19.22
2022-08-20T03:05:59.291Z,19.25
2022-08-20T03:08:28.566Z,19.26
2022-08-20T03:10:57.150Z,19.24
2022-08-20T03:13:25.892Z,19.25
2022-08-20T03:15:58.879Z,19.26
2022-08-20T03:18:31.244Z,19.28
2022-08-20T03:20:59.646Z,19.32
2022-08-20T03:23:27.679Z,19.36
2022-08-20T03:25:55.771Z,19.36
2022-08-20T03:28:23.898Z,19.37
2022-08-20T03:30:53.234Z,19.37
2022-08-20T03:33:21.546Z,19.37
2022-08-20T03:35:51.241Z,19.39
2022-08-20T03:38:29.243Z,19.34
2022-08-20T03:41:01.898Z,19.23
2022-08-20T03:43:30.251Z,19.36
2022-08-20T03:45:58.230Z,19.30
2022-08-20T03:48:26.689Z,19.28
2022-08-20T03:50:58.198Z,19.24
2022-08-20T03:53:26.684Z,19.21
2022-08-20T03:55:58.247Z,19.18
2022-08-20T03:58:34.970Z,19.16
2022-08-20T04:01:07.174Z,19.16
2022-08-20T04:03:35.910Z,19.21
2022-08-20T04:06:05.658Z,19.14
2022-08-20T04:08:33.867Z,19.18
2022-08-20T04:11:01.880Z,19.20
2022-08-20T04:13:31.707Z,19.15
2022-08-20T04:16:02.294Z,19.12
2022-08-20T04:18:30.818Z,19.13
2022-08-20T04:20:58.808Z,19.12
2022-08-20T04:23:28.397Z,19.11
2022-08-20T04:25:57.463Z,19.08
2022-08-20T04:28:27.227Z,19.04
2022-08-20T04:30:55.900Z,19.07
2022-08-20T04:33:34.016Z,19.04
2022-08-20T04:36:05.934Z,19.04
2022-08-20T04:38:48.393Z,19.00
2022-08-20T04:41:21.136Z,18.93
2022-08-20T04:43:53.018Z,18.94
2022-08-20T04:46:22.433Z,18.89
2022-08-20T04:48:50.835Z,18.88
2022-08-20T04:51:23.405Z,18.90
2022-08-20T04:53:56.289Z,18.82
2022-08-20T04:56:27.470Z,18.83
2022-08-20T04:58:58.054Z,18.80
2022-08-20T05:01:27.146Z,18.83
2022-08-20T05:03:57.155Z,18.83
2022-08-20T05:06:28.528Z,18.80
2022-08-20T05:08:59.611Z,18.69
2022-08-20T05:11:34.221Z,18.56
2022-08-20T05:14:03.467Z,18.41
2022-08-20T05:16:37.846Z,18.18
2022-08-20T05:19:06.997Z,18.27
2022-08-20T05:21:35.249Z,18.25
2022-08-20T05:24:05.304Z,18.26
2022-08-20T05:26:34.247Z,18.27
2022-08-20T05:29:04.759Z,18.28
2022-08-20T05:31:33.678Z,18.28
2022-08-20T05:34:09.718Z,18.33
2022-08-20T05:36:39.724Z,18.40
2022-08-20T05:39:10.193Z,18.49
2022-08-20T05:41:39.348Z,18.55
2022-08-20T05:44:10.659Z,18.62
2022-08-20T05:46:40.697Z,18.67
2022-08-20T05:49:09.063Z,18.76
2022-08-20T05:51:37.810Z,18.77
2022-08-20T05:54:07.009Z,18.85
2022-08-20T05:56:37.267Z,18.86
2022-08-20T05:59:07.009Z,18.87
2022-08-20T06:01:38.201Z,18.92
2022-08-20T06:04:24.583Z,18.85
2022-08-20T06:06:53.670Z,18.98
2022-08-20T06:09:30.643Z,19.06
2022-08-20T06:12:03.541Z,19.10
2022-08-20T06:14:32.310Z,19.18
2022-08-20T06:17:05.865Z,19.23
2022-08-20T06:19:34.930Z,19.36
2022-08-20T06:22:06.784Z,19.44
2022-08-20T06:24:47.565Z,19.54
2022-08-20T06:27:17.753Z,19.60
2022-08-20T06:29:45.784Z,19.72
2022-08-20T06:32:14.116Z,19.76
2022-08-20T06:34:50.256Z,19.89
2022-08-20T06:37:21.550Z,20.18
2022-08-20T06:39:50.515Z,20.31
2022-08-20T06:42:21.216Z,20.53
2022-08-20T06:44:50.277Z,20.45
2022-08-20T06:47:18.527Z,20.77
2022-08-20T06:49:47.455Z,20.96
2022-08-20T06:52:17.260Z,20.88
2022-08-20T06:54:45.559Z,21.17
2022-08-20T06:57:13.865Z,21.07
2022-08-20T06:59:43.292Z,21.41
2022-08-20T07:02:11.302Z,21.75
2022-08-20T07:04:39.306Z,21.79
2022-08-20T07:07:07.341Z,22.03
2022-08-20T07:09:35.335Z,22.19
2022-08-20T07:12:03.852Z,22.16
2022-08-20T07:14:31.996Z,22.05
2022-08-20T07:17:03.546Z,22.07
2022-08-20T07:19:31.654Z,22.06
2022-08-20T07:21:59.860Z,22.10
2022-08-20T07:24:32.603Z,22.18
2022-08-20T07:27:01.458Z,22.44
2022-08-20T07:29:49.487Z,22.53
2022-08-20T07:32:36.882Z,22.61
2022-08-20T07:35:11.592Z,22.61
2022-08-20T07:37:41.388Z,22.60
2022-08-20T07:40:12.610Z,22.68
2022-08-20T07:42:41.577Z,22.76
2022-08-20T07:45:12.215Z,22.89
2022-08-20T07:47:43.427Z,22.97
2022-08-20T07:50:14.324Z,23.00
2022-08-20T07:52:42.398Z,23.09
2022-08-20T07:55:13.378Z,23.25
2022-08-20T07:57:41.722Z,23.20
2022-08-20T08:00:12.890Z,23.41
2022-08-20T08:02:42.337Z,23.43
2022-08-20T08:05:11.778Z,23.36
2022-08-20T08:07:43.015Z,23.17
2022-08-20T08:10:18.345Z,22.97
2022-08-20T08:12:49.169Z,22.86
2022-08-20T08:15:19.760Z,22.91
2022-08-20T08:17:50.921Z,22.97
2022-08-20T08:20:22.524Z,22.84
2022-08-20T08:22:51.545Z,22.82
2022-08-20T08:25:19.653Z,22.66
2022-08-20T08:27:49.038Z,22.53
2022-08-20T08:30:18.427Z,22.44
2022-08-20T08:33:06.029Z,22.22
2022-08-20T08:35:35.400Z,22.25
2022-08-20T08:38:03.423Z,22.21
2022-08-20T08:40:32.645Z,22.00
2022-08-20T08:43:04.931Z,22.16
2022-08-20T08:45:43.698Z,22.22
2022-08-20T08:48:18.297Z,22.20
2022-08-20T08:50:54.864Z,22.05
2022-08-20T08:53:27.459Z,22.05
2022-08-20T08:55:55.770Z,22.09
2022-08-20T08:58:24.103Z,22.17
2022-08-20T09:00:56.653Z,22.34
2022-08-20T09:03:29.785Z,22.41
2022-08-20T09:06:02.552Z,22.57
2022-08-20T09:08:33.817Z,22.60
2022-08-20T09:11:04.399Z,22.63
2022-08-20T09:13:32.751Z,22.36
2022-08-20T09:16:01.065Z,22.49
2022-08-20T09:18:29.308Z,22.76
2022-08-20T09:20:58.867Z,22.77
2022-08-20T09:23:26.944Z,22.95
2022-08-20T09:25:54.973Z,23.09
2022-08-20T09:28:23.024Z,23.25
2022-08-20T09:30:52.591Z,23.29
2022-08-20T09:33:20.921Z,23.38
2022-08-20T09:35:49.458Z,23.41
2022-08-20T09:38:18.993Z,23.26
2022-08-20T09:40:47.352Z,23.36
2022-08-20T09:43:15.358Z,23.73
2022-08-20T09:45:43.430Z,23.80
2022-08-20T09:48:11.465Z,23.96
2022-08-20T09:50:45.019Z,24.00
2022-08-20T09:53:13.337Z,23.99
2022-08-20T09:55:45.288Z,23.87
2022-08-20T09:58:19.146Z,23.90
2022-08-20T10:00:47.294Z,24.59
2022-08-20T10:03:15.519Z,24.85
2022-08-20T10:05:43.558Z,24.90
2022-08-20T10:08:12.732Z,25.08
2022-08-20T10:10:42.204Z,25.00
2022-08-20T10:13:10.307Z,24.61
2022-08-20T10:15:41.887Z,24.57
2022-08-20T10:18:12.273Z,24.37
2022-08-20T10:20:41.496Z,24.33
2022-08-20T10:23:09.716Z,24.44
2022-08-20T10:25:37.950Z,24.51
2022-08-20T10:28:07.643Z,24.37
2022-08-20T10:30:36.072Z,24.29
2022-08-20T10:33:04.100Z,24.15
2022-08-20T10:35:32.147Z,24.10
2022-08-20T10:38:00.147Z,24.06
2022-08-20T10:40:28.271Z,23.97
2022-08-20T10:42:56.297Z,24.01
2022-08-20T10:45:26.291Z,23.85
2022-08-20T10:47:54.357Z,23.56
2022-08-20T10:50:22.390Z,23.16
2022-08-20T10:52:50.365Z,22.91
2022-08-20T10:55:19.511Z,21.96
2022-08-20T10:57:47.714Z,20.94
2022-08-20T11:00:17.421Z,20.71
2022-08-20T11:02:46.903Z,20.35
2022-08-20T11:05:14.970Z,20.30
2022-08-20T11:07:54.898Z,20.15
2022-08-20T11:10:25.957Z,20.12
2022-08-20T11:12:54.098Z,20.22
2022-08-20T11:15:22.399Z,20.25
2022-08-20T11:17:52.074Z,20.31
2022-08-20T11:20:23.632Z,20.30
2022-08-20T11:22:51.782Z,20.43
2022-08-20T11:25:19.908Z,20.32
2022-08-20T11:27:54.314Z,20.18
2022-08-20T11:30:25.129Z,20.21
2022-08-20T11:32:55.192Z,20.24
2022-08-20T11:35:43.516Z,20.22
2022-08-20T11:38:12.366Z,20.30
2022-08-20T11:40:40.705Z,20.28
2022-08-20T11:43:17.247Z,20.42
2022-08-20T11:45:47.315Z,20.63
2022-08-20T11:48:16.871Z,20.80
2022-08-20T11:50:44.937Z,20.86
2022-08-20T11:53:13.089Z,20.99
2022-08-20T11:55:43.342Z,21.11
2022-08-20T11:58:11.572Z,21.30
2022-08-20T12:00:39.592Z,21.53
2022-08-20T12:03:10.171Z,22.06
2022-08-20T12:05:40.666Z,22.16
2022-08-20T12:08:09.418Z,22.19
2022-08-20T12:10:38.422Z,22.14
2022-08-20T12:13:06.802Z,22.31
2022-08-20T12:15:35.364Z,22.78
2022-08-20T12:18:07.215Z,23.01
2022-08-20T12:20:35.622Z,23.26
2022-08-20T12:23:05.226Z,23.25
2022-08-20T12:25:33.986Z,23.60
2022-08-20T12:28:02.279Z,23.74
2022-08-20T12:30:30.314Z,24.15
2022-08-20T12:32:58.870Z,24.34
2022-08-20T12:35:28.099Z,24.31
2022-08-20T12:37:56.219Z,24.32
2022-08-20T12:40:32.309Z,24.89
2022-08-20T12:43:01.741Z,25.66
2022-08-20T12:45:30.183Z,26.17
2022-08-20T12:48:03.354Z,27.23
2022-08-20T12:50:32.099Z,26.51
2022-08-20T12:53:00.944Z,25.77
2022-08-20T12:55:31.446Z,26.13
2022-08-20T12:58:02.395Z,26.36
2022-08-20T13:00:32.883Z,26.93
2022-08-20T13:03:03.290Z,26.14
2022-08-20T13:05:31.988Z,26.23
2022-08-20T13:08:00.125Z,26.62
2022-08-20T13:10:32.421Z,27.15
2022-08-20T13:13:02.062Z,27.93
2022-08-20T13:15:30.730Z,28.07
2022-08-20T13:18:01.950Z,28.71
2022-08-20T13:20:31.629Z,28.60
2022-08-20T13:23:03.342Z,28.46
2022-08-20T13:25:33.798Z,28.54
2022-08-20T13:28:04.077Z,27.96
2022-08-20T13:30:33.828Z,28.05
2022-08-20T13:33:01.873Z,28.35
2022-08-20T13:35:30.018Z,28.90
2022-08-20T13:37:58.035Z,28.83
2022-08-20T13:40:26.451Z,28.74
2022-08-20T13:42:55.940Z,29.18
2022-08-20T13:45:24.149Z,29.77
2022-08-20T13:47:54.669Z,30.51
2022-08-20T13:50:25.438Z,30.01
2022-08-20T13:52:53.499Z,30.63
2022-08-20T13:55:24.022Z,30.32
2022-08-20T13:57:53.168Z,30.05
2022-08-20T14:00:31.202Z,30.57
2022-08-20T14:03:00.421Z,30.88
2022-08-20T14:05:28.554Z,29.66
2022-08-20T14:07:56.882Z,29.35
2022-08-20T14:10:31.299Z,29.44
2022-08-20T14:12:59.649Z,28.67
2022-08-20T14:15:29.071Z,28.45
2022-08-20T14:17:58.612Z,28.28
2022-08-20T14:20:29.489Z,27.35
2022-08-20T14:23:01.469Z,27.14
2022-08-20T14:25:30.958Z,26.94
2022-08-20T14:27:59.664Z,26.82
2022-08-20T14:30:31.520Z,26.65
2022-08-20T14:32:59.524Z,26.32
2022-08-20T14:35:27.596Z,26.43
2022-08-20T14:37:56.621Z,26.31
2022-08-20T14:40:25.990Z,26.30
2022-08-20T14:42:55.020Z,26.27
2022-08-20T14:45:24.291Z,26.39
2022-08-20T14:47:57.079Z,26.53
2022-08-20T14:50:26.293Z,26.97
2022-08-20T14:52:55.069Z,27.36
2022-08-20T14:55:25.768Z,27.16
2022-08-20T14:57:53.937Z,27.18
2022-08-20T15:00:25.187Z,26.84
2022-08-20T15:02:55.218Z,26.60
2022-08-20T15:05:23.788Z,26.25
2022-08-20T15:07:54.026Z,26.07
2022-08-20T15:10:25.373Z,26.21
2022-08-20T15:12:53.790Z,26.24
2022-08-20T15:15:22.220Z,26.04
2022-08-20T15:17:53.025Z,26.14
2022-08-20T15:20:27.534Z,26.33
2022-08-20T15:22:56.029Z,26.03
2022-08-20T15:25:27.257Z,25.75
2022-08-20T15:28:04.673Z,25.73
2022-08-20T15:30:33.427Z,25.66
2022-08-20T15:33:01.808Z,25.51
2022-08-20T15:35:31.568Z,25.56
2022-08-20T15:41:08.886Z,25.67
2022-08-20T15:43:36.836Z,25.44
2022-08-20T15:46:06.659Z,25.13
2022-08-20T15:48:37.570Z,25.24
2022-08-20T15:51:29.165Z,25.52
2022-08-20T15:54:02.370Z,25.14
2022-08-20T15:56:47.267Z,25.09
2022-08-20T15:59:26.677Z,25.03
2022-08-20T16:02:03.539Z,25.05
2022-08-20T16:04:53.593Z,25.13
2022-08-20T16:07:30.702Z,25.32
2022-08-20T16:10:05.192Z,25.44
2022-08-20T16:12:36.006Z,25.47
2022-08-20T16:15:10.073Z,25.53
2022-08-20T16:17:44.869Z,25.49
2022-08-20T16:20:22.270Z,25.35
2022-08-20T16:22:53.215Z,25.25
2022-08-20T16:25:28.274Z,25.26
2022-08-20T16:28:06.090Z,25.09
2022-08-20T16:30:40.386Z,25.04
2022-08-20T16:33:15.154Z,24.89
2022-08-20T16:35:50.999Z,24.80
2022-08-20T16:38:28.654Z,24.65
2022-08-20T16:41:06.887Z,24.69
2022-08-20T16:43:37.851Z,24.64
2022-08-20T16:46:13.786Z,24.52
2022-08-20T16:48:49.663Z,24.40
2022-08-20T16:51:22.327Z,24.43
2022-08-20T16:53:52.079Z,24.42
2022-08-20T16:56:33.494Z,24.56
2022-08-20T16:59:06.445Z,24.59
2022-08-20T17:01:35.131Z,24.48
2022-08-20T17:04:03.358Z,24.50
2022-08-20T17:06:35.577Z,24.52
2022-08-20T17:09:09.544Z,24.37
2022-08-20T17:11:38.829Z,24.25
2022-08-20T17:14:11.346Z,24.24
2022-08-20T17:16:44.089Z,24.17
2022-08-20T17:19:18.132Z,24.14
2022-08-20T17:21:50.528Z,24.04
2022-08-20T17:24:25.316Z,23.89
2022-08-20T17:27:00.903Z,23.86
2022-08-20T17:29:31.540Z,23.77
2022-08-20T17:32:01.910Z,23.70
2022-08-20T17:34:33.141Z,23.69
2022-08-20T17:37:20.118Z,23.64
2022-08-20T17:39:51.703Z,23.59
2022-08-20T17:42:22.776Z,23.56
2022-08-20T17:44:56.954Z,23.45
2022-08-20T17:47:34.401Z,23.45
2022-08-20T17:50:09.406Z,23.40
2022-08-20T17:52:45.025Z,23.27
2022-08-20T17:55:14.540Z,23.25
2022-08-20T17:57:46.236Z,23.16
2022-08-20T18:00:23.330Z,23.13
2022-08-20T18:02:53.824Z,23.10
2022-08-20T18:05:23.317Z,23.11
2022-08-20T18:08:15.877Z,23.07
2022-08-20T18:10:58.523Z,23.04
2022-08-20T18:13:45.005Z,22.93
2022-08-20T18:16:26.622Z,22.81
2022-08-20T18:18:59.295Z,22.77
2022-08-20T18:21:48.459Z,22.69
2022-08-20T18:24:22.854Z,22.62
2022-08-20T18:26:54.849Z,22.55
2022-08-20T18:29:27.533Z,22.52
2022-08-20T18:31:59.027Z,22.49
2022-08-20T18:34:37.519Z,22.43
2022-08-20T18:37:07.528Z,22.47
2022-08-20T18:39:38.390Z,22.46
2022-08-20T18:42:10.899Z,22.40
2022-08-20T18:44:43.908Z,22.39
2022-08-20T18:47:22.210Z,22.36
2022-08-20T18:50:02.540Z,22.32
2022-08-20T18:52:32.720Z,22.28
2022-08-20T18:55:03.455Z,22.22
2022-08-20T18:57:41.585Z,22.21
2022-08-20T19:00:14.161Z,22.19
2022-08-20T19:02:56.519Z,22.14
2022-08-20T19:05:30.929Z,22.11
2022-08-20T19:08:01.902Z,22.11
2022-08-20T19:10:44.747Z,22.07
2022-08-20T19:13:48.365Z,21.99
2022-08-20T19:16:22.698Z,21.94
2022-08-20T19:18:53.731Z,21.90
2022-08-20T19:21:26.361Z,21.88
2022-08-20T19:23:59.010Z,21.85
2022-08-20T19:26:31.176Z,21.82
2022-08-20T19:29:02.895Z,21.79
2022-08-20T19:31:35.267Z,21.74
2022-08-20T19:34:19.642Z,21.70
2022-08-20T19:36:55.421Z,21.65
2022-08-20T19:39:25.789Z,21.63
2022-08-20T19:42:01.435Z,21.62
2022-08-20T19:44:39.404Z,21.59
2022-08-20T19:47:18.027Z,21.54
2022-08-20T19:49:59.001Z,21.51
2022-08-20T19:52:34.625Z,21.48
2022-08-20T19:55:04.026Z,21.48
2022-08-20T19:57:32.545Z,21.42
2022-08-20T20:00:12.903Z,21.37
2022-08-20T20:02:42.568Z,21.33
2022-08-20T20:05:12.230Z,21.29
2022-08-20T20:07:44.755Z,21.26
2022-08-20T20:10:32.186Z,21.23
2022-08-20T20:13:08.410Z,21.18
2022-08-20T20:15:37.706Z,21.06
2022-08-20T20:18:08.261Z,21.04
2022-08-20T20:20:55.909Z,20.97
2022-08-20T20:23:38.716Z,20.91
2022-08-20T20:26:17.973Z,20.82
2022-08-20T20:28:48.938Z,20.73
2022-08-20T20:31:23.322Z,20.64
2022-08-20T20:33:56.733Z,20.56
2022-08-20T20:36:37.243Z,20.51
2022-08-20T20:39:14.142Z,20.44
2022-08-20T20:41:52.407Z,20.33
2022-08-20T20:44:22.700Z,20.24
2022-08-20T20:46:53.930Z,20.16
2022-08-20T20:49:26.906Z,20.10
2022-08-20T20:51:56.713Z,20.03
2022-08-20T20:54:29.546Z,19.97
2022-08-20T20:57:03.360Z,19.88
2022-08-20T20:59:34.461Z,19.84
2022-08-20T21:02:03.191Z,19.75
2022-08-20T21:04:33.138Z,19.64
2022-08-20T21:07:08.686Z,19.54
2022-08-20T21:09:38.454Z,19.43
2022-08-20T21:12:07.577Z,19.37
2022-08-20T21:14:36.106Z,19.29
2022-08-20T21:17:06.888Z,19.22
2022-08-20T21:19:41.040Z,19.17
2022-08-20T21:22:13.181Z,19.10
2022-08-20T21:24:41.300Z,19.04
2022-08-20T21:27:09.937Z,19.02
2022-08-20T21:29:40.889Z,19.00
2022-08-20T21:32:09.577Z,18.94
2022-08-20T21:34:42.425Z,18.86
2022-08-20T21:37:10.656Z,18.80
2022-08-20T21:39:38.959Z,18.68
2022-08-20T21:42:16.073Z,18.59
2022-08-20T21:44:56.959Z,18.57
2022-08-20T21:47:25.706Z,18.51
2022-08-20T21:49:55.593Z,18.47
2022-08-20T21:52:23.728Z,18.42
2022-08-20T21:54:52.030Z,18.41
2022-08-20T21:57:21.705Z,18.35
2022-08-20T21:59:50.670Z,18.29
2022-08-20T22:02:19.362Z,18.21
2022-08-20T22:04:47.381Z,18.16
2022-08-20T22:07:17.422Z,18.10
2022-08-20T22:09:45.669Z,18.06
2022-08-20T22:12:18.685Z,18.00
2022-08-20T22:14:47.849Z,17.91
2022-08-20T22:17:16.519Z,17.83
2022-08-20T22:19:44.785Z,17.74
2022-08-20T22:22:14.598Z,17.68
2022-08-20T22:24:45.597Z,17.58
2022-08-20T22:27:14.319Z,17.54
2022-08-20T22:29:42.320Z,17.49
2022-08-20T22:32:10.743Z,17.46
2022-08-20T22:34:38.995Z,17.43
2022-08-20T22:37:07.349Z,17.39
2022-08-20T22:39:35.431Z,17.41
2022-08-20T22:42:05.236Z,17.34
2022-08-20T22:44:33.275Z,17.15
2022-08-20T22:47:03.530Z,17.21
2022-08-20T22:49:34.825Z,17.15
2022-08-20T22:52:03.237Z,17.09
2022-08-20T22:54:31.428Z,17.07
2022-08-20T22:56:59.483Z,17.05
2022-08-20T22:59:29.521Z,16.99
2022-08-20T23:01:59.382Z,16.95
2022-08-20T23:04:30.632Z,16.91
2022-08-20T23:06:59.627Z,16.84
2022-08-20T23:09:28.245Z,16.76
2022-08-20T23:11:58.453Z,16.71
2022-08-20T23:14:27.944Z,16.70
2022-08-20T23:17:01.249Z,16.67
2022-08-20T23:19:29.325Z,16.58
2022-08-20T23:21:57.613Z,16.47
2022-08-20T23:24:25.933Z,16.47
2022-08-20T23:26:54.059Z,16.50
2022-08-20T23:29:25.867Z,16.44
2022-08-20T23:31:56.727Z,16.35
2022-08-20T23:34:25.582Z,16.32
2022-08-20T23:36:55.049Z,16.28
2022-08-20T23:39:23.961Z,16.29
2022-08-20T23:41:52.103Z,16.29
2022-08-20T23:44:25.853Z,16.33
2022-08-20T23:46:57.929Z,16.34
2022-08-20T23:49:26.264Z,16.31
2022-08-20T23:51:54.372Z,16.31
2022-08-20T23:54:22.838Z,16.37
2022-08-20T23:56:50.878Z,16.38
2022-08-20T23:59:18.831Z,16.33
